createdAt,value
2019-03-20T00:00:04.537Z,12.63
2019-03-20T00:00:35.793Z,12.62
2019-03-20T00:01:08.045Z,12.63
2019-03-20T00:01:43.621Z,12.64
2019-03-20T00:02:12.314Z,12.63
2019-03-20T00:02:43.894Z,12.65
2019-03-20T00:03:15.134Z,12.66
2019-03-20T00:03:46.383Z,12.67
2019-03-20T00:04:17.587Z,12.65
2019-03-20T00:04:49.946Z,12.67
2019-03-20T00:05:21.485Z,12.66
2019-03-20T00:05:52.712Z,12.67
2019-03-20T00:06:24.879Z,12.64
2019-03-20T00:06:56.086Z,12.64
2019-03-20T00:07:27.304Z,12.64
2019-03-20T00:07:58.586Z,12.64
2019-03-20T00:08:29.790Z,12.65
2019-03-20T00:09:01.030Z,12.64
2019-03-20T00:09:32.225Z,12.62
2019-03-20T00:10:03.438Z,12.62
2019-03-20T00:10:34.638Z,12.60
2019-03-20T00:11:05.842Z,12.58
2019-03-20T00:11:37.050Z,12.55
2019-03-20T00:12:08.264Z,12.50
2019-03-20T00:12:39.521Z,12.48
2019-03-20T00:13:10.727Z,12.43
2019-03-20T00:13:41.934Z,12.41
2019-03-20T00:14:13.141Z,12.37
2019-03-20T00:14:44.359Z,12.38
2019-03-20T00:15:15.554Z,12.38
2019-03-20T00:15:46.773Z,12.39
2019-03-20T00:16:18.002Z,12.24
2019-03-20T00:16:49.217Z,12.37
2019-03-20T00:17:20.469Z,12.37
2019-03-20T00:17:51.682Z,12.36
2019-03-20T00:18:22.893Z,12.35
2019-03-20T00:18:54.088Z,12.33
2019-03-20T00:19:25.293Z,12.33
2019-03-20T00:19:56.502Z,12.33
2019-03-20T00:20:27.706Z,12.33
2019-03-20T00:20:58.912Z,12.32
2019-03-20T00:21:30.119Z,12.33
2019-03-20T00:22:01.318Z,12.33
2019-03-20T00:22:32.614Z,12.33
2019-03-20T00:23:03.852Z,12.34
2019-03-20T00:23:35.096Z,12.33
2019-03-20T00:24:06.314Z,12.32
2019-03-20T00:24:37.553Z,12.32
2019-03-20T00:25:08.766Z,12.30
2019-03-20T00:25:39.981Z,12.30
2019-03-20T00:26:11.189Z,12.29
2019-03-20T00:26:42.405Z,12.29
2019-03-20T00:27:13.608Z,12.29
2019-03-20T00:27:44.895Z,12.30
2019-03-20T00:28:16.099Z,12.30
2019-03-20T00:28:47.310Z,12.27
2019-03-20T00:29:18.509Z,12.25
2019-03-20T00:29:49.731Z,12.24
2019-03-20T00:30:20.973Z,12.23
2019-03-20T00:30:52.210Z,12.20
2019-03-20T00:31:23.418Z,12.17
2019-03-20T00:31:54.630Z,12.17
2019-03-20T00:32:25.840Z,12.16
2019-03-20T00:32:57.116Z,12.12
2019-03-20T00:33:28.327Z,12.10
2019-03-20T00:33:59.528Z,12.10
2019-03-20T00:34:30.732Z,12.05
2019-03-20T00:35:01.944Z,12.06
2019-03-20T00:35:33.210Z,12.04
2019-03-20T00:36:04.418Z,12.05
2019-03-20T00:36:35.622Z,12.06
2019-03-20T00:37:06.830Z,12.07
2019-03-20T00:37:38.075Z,12.07
2019-03-20T00:38:09.320Z,12.07
2019-03-20T00:38:40.514Z,12.09
2019-03-20T00:39:11.732Z,12.10
2019-03-20T00:39:42.937Z,12.10
2019-03-20T00:40:14.141Z,12.11
2019-03-20T00:40:45.382Z,12.11
2019-03-20T00:41:16.584Z,12.09
2019-03-20T00:41:48.640Z,12.08
2019-03-20T00:42:19.855Z,12.06
2019-03-20T00:42:51.081Z,12.07
2019-03-20T00:43:22.283Z,12.08
2019-03-20T00:43:53.500Z,12.08
2019-03-20T00:44:24.750Z,12.08
2019-03-20T00:44:55.955Z,12.10
2019-03-20T00:45:27.167Z,12.10
2019-03-20T00:45:58.376Z,12.10
2019-03-20T00:46:29.606Z,12.11
2019-03-20T00:47:00.822Z,12.10
2019-03-20T00:47:32.027Z,12.11
2019-03-20T00:48:03.292Z,12.10
2019-03-20T00:48:34.510Z,12.10
2019-03-20T00:49:05.707Z,12.10
2019-03-20T00:49:36.918Z,12.09
2019-03-20T00:50:08.148Z,12.09
2019-03-20T00:50:39.340Z,12.09
2019-03-20T00:51:10.530Z,12.09
2019-03-20T00:51:41.740Z,12.05
2019-03-20T00:52:12.946Z,12.04
2019-03-20T00:52:44.168Z,12.04
2019-03-20T00:53:15.432Z,12.05
2019-03-20T00:53:46.628Z,12.04
2019-03-20T00:54:17.847Z,12.04
2019-03-20T00:54:49.054Z,12.03
2019-03-20T00:55:20.271Z,12.01
2019-03-20T00:55:51.462Z,12.01
2019-03-20T00:56:22.661Z,11.98
2019-03-20T00:56:53.870Z,11.96
2019-03-20T00:57:25.072Z,11.96
2019-03-20T00:57:56.285Z,11.94
2019-03-20T00:58:27.551Z,11.92
2019-03-20T00:58:58.759Z,8.36
2019-03-20T00:59:29.968Z,11.91
2019-03-20T01:00:01.187Z,11.91
2019-03-20T01:00:32.390Z,11.89
2019-03-20T01:01:03.592Z,11.88
2019-03-20T01:01:34.808Z,11.87
2019-03-20T01:02:06.005Z,11.86
2019-03-20T01:02:37.198Z,11.85
2019-03-20T01:03:08.478Z,11.84
2019-03-20T01:03:39.687Z,11.83
2019-03-20T01:04:10.920Z,11.81
2019-03-20T01:04:42.122Z,11.81
2019-03-20T01:05:13.380Z,11.79
2019-03-20T01:05:44.583Z,11.77
2019-03-20T01:06:15.784Z,11.76
2019-03-20T01:06:46.990Z,11.76
2019-03-20T01:07:18.193Z,11.76
2019-03-20T01:07:49.460Z,11.75
2019-03-20T01:08:20.661Z,11.75
2019-03-20T01:08:51.858Z,11.75
2019-03-20T01:09:23.058Z,11.76
2019-03-20T01:09:54.261Z,11.75
2019-03-20T01:10:25.471Z,11.74
2019-03-20T01:10:56.705Z,11.75
2019-03-20T01:11:27.898Z,11.76
2019-03-20T01:11:59.106Z,11.75
2019-03-20T01:12:30.302Z,11.76
2019-03-20T01:13:01.514Z,11.76
2019-03-20T01:13:32.727Z,11.77
2019-03-20T01:14:03.933Z,11.78
2019-03-20T01:14:35.139Z,11.81
2019-03-20T01:15:06.340Z,11.83
2019-03-20T01:15:37.560Z,11.85
2019-03-20T01:16:08.778Z,11.88
2019-03-20T01:16:39.990Z,11.88
2019-03-20T01:17:11.240Z,11.88
2019-03-20T01:17:42.457Z,11.87
2019-03-20T01:18:13.653Z,11.87
2019-03-20T01:18:44.901Z,11.87
2019-03-20T01:19:16.121Z,11.87
2019-03-20T01:19:47.309Z,11.88
2019-03-20T01:20:18.539Z,11.89
2019-03-20T01:20:49.742Z,11.90
2019-03-20T01:21:20.964Z,11.90
2019-03-20T01:21:52.206Z,11.91
2019-03-20T01:22:23.417Z,11.92
2019-03-20T01:22:54.619Z,11.90
2019-03-20T01:23:25.833Z,11.90
2019-03-20T01:23:57.051Z,11.88
2019-03-20T01:24:28.255Z,11.87
2019-03-20T01:24:59.454Z,11.86
2019-03-20T01:25:30.648Z,11.85
2019-03-20T01:26:01.865Z,11.82
2019-03-20T01:26:33.123Z,11.82
2019-03-20T01:27:04.351Z,11.82
2019-03-20T01:27:35.552Z,11.83
2019-03-20T01:28:06.765Z,11.82
2019-03-20T01:28:37.987Z,11.82
2019-03-20T01:29:09.192Z,11.81
2019-03-20T01:29:40.390Z,11.79
2019-03-20T01:30:11.590Z,11.78
2019-03-20T01:30:42.844Z,11.77
2019-03-20T01:31:14.057Z,11.76
2019-03-20T01:31:45.297Z,11.74
2019-03-20T01:32:16.531Z,11.75
2019-03-20T01:32:47.737Z,11.74
2019-03-20T01:33:18.987Z,11.74
2019-03-20T01:33:50.202Z,11.75
2019-03-20T01:34:21.406Z,11.73
2019-03-20T01:34:52.621Z,11.72
2019-03-20T01:35:24.326Z,11.69
2019-03-20T01:35:55.609Z,11.65
2019-03-20T01:36:27.006Z,11.61
2019-03-20T01:36:58.212Z,11.58
2019-03-20T01:37:29.418Z,11.55
2019-03-20T01:38:00.626Z,11.51
2019-03-20T01:38:31.896Z,11.48
2019-03-20T01:39:03.106Z,11.45
2019-03-20T01:39:34.329Z,11.44
2019-03-20T01:40:05.568Z,11.44
2019-03-20T01:40:36.763Z,11.44
2019-03-20T01:41:07.974Z,11.44
2019-03-20T01:41:39.225Z,11.42
2019-03-20T01:42:10.437Z,11.42
2019-03-20T01:42:41.734Z,11.44
2019-03-20T01:43:12.936Z,11.45
2019-03-20T01:43:44.217Z,11.43
2019-03-20T01:44:15.433Z,10.82
2019-03-20T01:44:46.643Z,11.41
2019-03-20T01:45:17.989Z,11.40
2019-03-20T01:45:49.185Z,11.37
2019-03-20T01:46:20.446Z,11.37
2019-03-20T01:46:51.617Z,11.37
2019-03-20T01:47:22.830Z,11.36
2019-03-20T01:47:54.024Z,11.37
2019-03-20T01:48:25.224Z,11.36
2019-03-20T01:48:56.441Z,11.36
2019-03-20T01:49:27.660Z,11.36
2019-03-20T01:49:58.865Z,11.34
2019-03-20T01:50:30.092Z,11.32
2019-03-20T01:51:01.299Z,11.29
2019-03-20T01:51:32.505Z,11.27
2019-03-20T01:52:03.731Z,11.24
2019-03-20T01:52:34.982Z,11.22
2019-03-20T01:53:06.195Z,11.19
2019-03-20T01:53:37.401Z,11.18
2019-03-20T01:54:08.615Z,11.16
2019-03-20T01:54:39.821Z,11.13
2019-03-20T01:55:11.033Z,11.14
2019-03-20T01:55:42.246Z,11.12
2019-03-20T01:56:13.460Z,11.10
2019-03-20T01:56:44.672Z,11.08
2019-03-20T01:57:15.873Z,11.08
2019-03-20T01:57:47.137Z,11.09
2019-03-20T01:58:18.344Z,11.08
2019-03-20T01:58:49.557Z,11.09
2019-03-20T01:59:20.780Z,11.10
2019-03-20T01:59:52.002Z,11.09
2019-03-20T02:00:23.235Z,11.09
2019-03-20T02:00:54.405Z,11.09
2019-03-20T02:01:25.613Z,11.08
2019-03-20T02:01:56.850Z,11.07
2019-03-20T02:02:28.077Z,11.08
2019-03-20T02:02:59.280Z,11.07
2019-03-20T02:03:30.529Z,11.08
2019-03-20T02:04:01.729Z,11.07
2019-03-20T02:04:32.940Z,11.08
2019-03-20T02:05:04.163Z,11.09
2019-03-20T02:05:36.590Z,11.09
2019-03-20T02:06:08.071Z,11.10
2019-03-20T02:06:39.336Z,11.10
2019-03-20T02:07:10.540Z,11.13
2019-03-20T02:07:41.770Z,11.12
2019-03-20T02:08:12.984Z,11.13
2019-03-20T02:08:44.195Z,11.14
2019-03-20T02:09:15.404Z,11.13
2019-03-20T02:09:46.614Z,11.12
2019-03-20T02:10:17.827Z,11.11
2019-03-20T02:10:49.027Z,11.12
2019-03-20T02:11:20.327Z,11.12
2019-03-20T02:11:51.581Z,11.11
2019-03-20T02:12:22.795Z,11.11
2019-03-20T02:12:53.992Z,11.10
2019-03-20T02:13:25.195Z,11.09
2019-03-20T02:13:56.406Z,11.07
2019-03-20T02:14:27.611Z,11.07
2019-03-20T02:14:58.816Z,11.06
2019-03-20T02:15:38.651Z,11.04
2019-03-20T02:16:02.946Z,11.03
2019-03-20T02:16:34.162Z,10.99
2019-03-20T02:17:05.418Z,10.96
2019-03-20T02:17:36.621Z,10.94
2019-03-20T02:18:07.827Z,10.93
2019-03-20T02:18:39.040Z,10.89
2019-03-20T02:19:10.242Z,10.85
2019-03-20T02:19:41.449Z,10.82
2019-03-20T02:20:12.656Z,10.80
2019-03-20T02:20:43.853Z,10.79
2019-03-20T02:21:15.066Z,10.77
2019-03-20T02:21:46.290Z,10.75
2019-03-20T02:22:17.520Z,10.74
2019-03-20T02:22:48.725Z,10.73
2019-03-20T02:23:19.926Z,10.72
2019-03-20T02:23:51.120Z,10.72
2019-03-20T02:24:22.333Z,10.73
2019-03-20T02:24:53.543Z,10.72
2019-03-20T02:25:24.762Z,10.73
2019-03-20T02:25:56.006Z,10.74
2019-03-20T02:26:27.222Z,10.74
2019-03-20T02:26:58.440Z,10.74
2019-03-20T02:27:29.639Z,10.75
2019-03-20T02:28:00.839Z,10.74
2019-03-20T02:28:32.050Z,10.76
2019-03-20T02:29:03.282Z,10.77
2019-03-20T02:29:34.471Z,10.77
2019-03-20T02:30:05.671Z,10.78
2019-03-20T02:30:36.880Z,10.77
2019-03-20T02:31:08.189Z,10.77
2019-03-20T02:31:39.389Z,10.76
2019-03-20T02:32:10.601Z,10.76
2019-03-20T02:32:41.816Z,10.75
2019-03-20T02:33:13.018Z,10.77
2019-03-20T02:33:44.280Z,10.75
2019-03-20T02:34:15.487Z,10.72
2019-03-20T02:34:46.690Z,10.72
2019-03-20T02:35:17.910Z,10.70
2019-03-20T02:35:51.801Z,10.67
2019-03-20T02:36:22.118Z,10.63
2019-03-20T02:36:53.319Z,10.60
2019-03-20T02:37:24.527Z,10.57
2019-03-20T02:37:55.725Z,10.54
2019-03-20T02:38:26.969Z,10.52
2019-03-20T02:38:58.184Z,10.50
2019-03-20T02:39:29.386Z,10.48
2019-03-20T02:40:00.605Z,10.48
2019-03-20T02:40:31.828Z,10.46
2019-03-20T02:41:03.030Z,10.42
2019-03-20T02:41:34.279Z,10.41
2019-03-20T02:42:05.487Z,10.42
2019-03-20T02:42:36.691Z,10.39
2019-03-20T02:43:07.915Z,10.37
2019-03-20T02:43:39.112Z,10.35
2019-03-20T02:44:10.333Z,10.32
2019-03-20T02:44:41.526Z,10.33
2019-03-20T02:45:12.767Z,10.31
2019-03-20T02:45:43.960Z,10.30
2019-03-20T02:46:15.241Z,10.29
2019-03-20T02:46:46.465Z,10.29
2019-03-20T02:47:17.666Z,10.28
2019-03-20T02:47:48.884Z,10.27
2019-03-20T02:48:20.079Z,10.24
2019-03-20T02:48:51.291Z,10.22
2019-03-20T02:49:22.540Z,10.21
2019-03-20T02:49:53.764Z,10.19
2019-03-20T02:50:25.006Z,10.17
2019-03-20T02:50:56.233Z,10.16
2019-03-20T02:51:27.454Z,10.14
2019-03-20T02:51:58.668Z,10.12
2019-03-20T02:52:29.884Z,10.11
2019-03-20T02:53:00.904Z,10.08
2019-03-20T02:53:32.138Z,10.04
2019-03-20T02:54:03.305Z,10.00
2019-03-20T02:54:34.561Z,9.99
2019-03-20T02:55:05.767Z,9.98
2019-03-20T02:55:36.981Z,9.97
2019-03-20T02:56:08.213Z,9.94
2019-03-20T02:56:39.418Z,9.94
2019-03-20T02:57:10.631Z,9.96
2019-03-20T02:57:41.858Z,9.93
2019-03-20T02:58:13.050Z,9.93
2019-03-20T02:58:44.276Z,9.91
2019-03-20T02:59:15.481Z,9.88
2019-03-20T02:59:46.715Z,9.85
2019-03-20T03:00:17.956Z,9.84
2019-03-20T03:00:49.141Z,9.85
2019-03-20T03:01:20.363Z,9.82
2019-03-20T03:01:51.573Z,9.80
2019-03-20T03:02:22.761Z,9.78
2019-03-20T03:02:53.982Z,9.76
2019-03-20T03:03:25.182Z,9.76
2019-03-20T03:03:56.397Z,9.72
2019-03-20T03:04:27.603Z,9.70
2019-03-20T03:04:58.819Z,9.69
2019-03-20T03:05:30.011Z,9.65
2019-03-20T03:06:07.303Z,9.62
2019-03-20T03:06:34.195Z,9.57
2019-03-20T03:07:05.388Z,9.58
2019-03-20T03:07:36.610Z,9.59
2019-03-20T03:08:07.826Z,9.58
2019-03-20T03:08:39.087Z,9.62
2019-03-20T03:09:10.301Z,9.59
2019-03-20T03:09:41.487Z,9.61
2019-03-20T03:10:12.701Z,9.60
2019-03-20T03:10:43.913Z,9.57
2019-03-20T03:11:15.119Z,9.60
2019-03-20T03:11:46.361Z,9.60
2019-03-20T03:12:17.563Z,9.62
2019-03-20T03:12:48.762Z,9.62
2019-03-20T03:13:19.984Z,9.65
2019-03-20T03:13:51.185Z,9.67
2019-03-20T03:14:22.380Z,9.67
2019-03-20T03:14:53.586Z,9.70
2019-03-20T03:15:24.817Z,9.72
2019-03-20T03:15:56.013Z,9.72
2019-03-20T03:16:27.212Z,9.75
2019-03-20T03:16:58.462Z,9.77
2019-03-20T03:17:29.687Z,9.79
2019-03-20T03:18:00.900Z,9.80
2019-03-20T03:18:32.110Z,9.80
2019-03-20T03:19:03.325Z,9.81
2019-03-20T03:19:34.529Z,9.82
2019-03-20T03:20:05.744Z,9.82
2019-03-20T03:20:37.007Z,9.81
2019-03-20T03:21:08.220Z,9.80
2019-03-20T03:21:39.427Z,9.78
2019-03-20T03:22:10.649Z,9.75
2019-03-20T03:22:41.860Z,9.73
2019-03-20T03:23:13.050Z,9.73
2019-03-20T03:23:44.362Z,9.74
2019-03-20T03:24:15.568Z,9.70
2019-03-20T03:24:46.934Z,9.70
2019-03-20T03:25:18.166Z,9.70
2019-03-20T03:25:50.307Z,9.70
2019-03-20T03:26:21.666Z,9.69
2019-03-20T03:26:52.880Z,9.71
2019-03-20T03:27:24.098Z,9.71
2019-03-20T03:27:55.302Z,9.75
2019-03-20T03:28:26.494Z,9.75
2019-03-20T03:28:57.729Z,9.76
2019-03-20T03:29:28.945Z,9.79
2019-03-20T03:30:00.255Z,9.79
2019-03-20T03:30:31.915Z,9.79
2019-03-20T03:31:03.136Z,9.77
2019-03-20T03:31:34.429Z,9.74
2019-03-20T03:32:05.637Z,9.73
2019-03-20T03:32:36.844Z,9.74
2019-03-20T03:33:08.042Z,9.72
2019-03-20T03:33:39.266Z,9.71
2019-03-20T03:34:10.548Z,9.71
2019-03-20T03:34:41.719Z,9.71
2019-03-20T03:35:16.978Z,9.69
2019-03-20T03:35:45.861Z,9.67
2019-03-20T03:36:21.452Z,9.67
2019-03-20T03:36:50.018Z,9.64
2019-03-20T03:37:21.206Z,9.64
2019-03-20T03:37:52.411Z,9.64
2019-03-20T03:38:23.627Z,9.63
2019-03-20T03:38:54.815Z,9.63
2019-03-20T03:39:26.071Z,9.60
2019-03-20T03:39:57.278Z,9.58
2019-03-20T03:40:28.494Z,9.59
2019-03-20T03:40:59.707Z,9.60
2019-03-20T03:41:30.915Z,9.58
2019-03-20T03:42:02.125Z,9.57
2019-03-20T03:42:33.361Z,9.57
2019-03-20T03:43:04.584Z,9.56
2019-03-20T03:43:35.790Z,9.55
2019-03-20T03:44:06.993Z,9.55
2019-03-20T03:44:38.234Z,9.57
2019-03-20T03:45:09.446Z,9.58
2019-03-20T03:45:40.652Z,9.58
2019-03-20T03:46:11.888Z,9.58
2019-03-20T03:46:43.094Z,9.57
2019-03-20T03:47:14.309Z,9.57
2019-03-20T03:47:45.521Z,9.56
2019-03-20T03:48:16.723Z,9.55
2019-03-20T03:48:47.938Z,9.55
2019-03-20T03:49:19.170Z,9.53
2019-03-20T03:49:50.470Z,9.51
2019-03-20T03:50:21.685Z,9.49
2019-03-20T03:50:52.891Z,9.47
2019-03-20T03:51:24.144Z,9.47
2019-03-20T03:51:55.357Z,9.47
2019-03-20T03:52:26.569Z,9.47
2019-03-20T03:52:57.783Z,9.45
2019-03-20T03:53:28.974Z,9.46
2019-03-20T03:54:00.209Z,9.44
2019-03-20T03:54:31.396Z,9.40
2019-03-20T03:55:02.615Z,9.40
2019-03-20T03:55:33.874Z,9.41
2019-03-20T03:56:05.088Z,9.41
2019-03-20T03:56:36.291Z,9.39
2019-03-20T03:57:07.497Z,9.37
2019-03-20T03:57:38.699Z,9.37
2019-03-20T03:58:09.920Z,9.35
2019-03-20T03:58:41.121Z,9.35
2019-03-20T03:59:12.328Z,9.36
2019-03-20T03:59:43.538Z,9.36
2019-03-20T04:00:14.760Z,9.38
2019-03-20T04:00:46.040Z,9.38
2019-03-20T04:01:17.250Z,9.39
2019-03-20T04:01:48.454Z,9.40
2019-03-20T04:02:19.673Z,9.42
2019-03-20T04:02:50.886Z,9.40
2019-03-20T04:03:22.206Z,9.43
2019-03-20T04:03:53.394Z,9.45
2019-03-20T04:04:24.596Z,9.46
2019-03-20T04:04:55.809Z,9.48
2019-03-20T04:05:27.071Z,9.49
2019-03-20T04:05:58.282Z,9.48
2019-03-20T04:06:35.655Z,9.49
2019-03-20T04:07:02.426Z,9.48
2019-03-20T04:07:33.612Z,9.48
2019-03-20T04:08:04.828Z,9.47
2019-03-20T04:08:36.023Z,9.45
2019-03-20T04:09:07.239Z,9.40
2019-03-20T04:09:38.451Z,9.39
2019-03-20T04:10:09.649Z,9.36
2019-03-20T04:10:40.978Z,9.33
2019-03-20T04:11:12.186Z,9.35
2019-03-20T04:11:43.394Z,9.34
2019-03-20T04:12:14.593Z,9.35
2019-03-20T04:12:45.910Z,9.34
2019-03-20T04:13:17.096Z,9.34
2019-03-20T04:13:48.308Z,9.33
2019-03-20T04:14:19.542Z,9.31
2019-03-20T04:14:50.773Z,9.33
2019-03-20T04:15:21.973Z,9.31
2019-03-20T04:15:53.173Z,9.29
2019-03-20T04:16:24.385Z,9.26
2019-03-20T04:16:55.598Z,9.23
2019-03-20T04:17:26.832Z,9.21
2019-03-20T04:17:58.044Z,9.21
2019-03-20T04:18:29.246Z,9.17
2019-03-20T04:19:00.462Z,9.13
2019-03-20T04:19:31.673Z,9.11
2019-03-20T04:20:02.879Z,9.09
2019-03-20T04:20:34.211Z,9.07
2019-03-20T04:21:05.435Z,9.05
2019-03-20T04:21:36.671Z,9.05
2019-03-20T04:22:07.882Z,9.02
2019-03-20T04:22:39.097Z,9.03
2019-03-20T04:23:10.317Z,9.05
2019-03-20T04:23:41.525Z,9.04
2019-03-20T04:24:12.738Z,9.04
2019-03-20T04:24:43.937Z,9.02
2019-03-20T04:25:15.144Z,8.97
2019-03-20T04:25:46.349Z,8.92
2019-03-20T04:26:17.569Z,8.88
2019-03-20T04:26:48.815Z,8.88
2019-03-20T04:27:20.025Z,8.88
2019-03-20T04:27:51.229Z,8.89
2019-03-20T04:28:22.541Z,8.87
2019-03-20T04:28:53.740Z,8.88
2019-03-20T04:29:25.802Z,8.89
2019-03-20T04:29:57.007Z,8.90
2019-03-20T04:30:28.225Z,8.92
2019-03-20T04:30:59.436Z,8.92
2019-03-20T04:31:30.654Z,8.93
2019-03-20T04:32:01.857Z,8.93
2019-03-20T04:32:33.086Z,8.93
2019-03-20T04:33:04.361Z,8.94
2019-03-20T04:33:35.585Z,8.94
2019-03-20T04:34:06.796Z,8.94
2019-03-20T04:34:37.991Z,8.94
2019-03-20T04:35:09.200Z,8.96
2019-03-20T04:35:40.400Z,8.94
2019-03-20T04:36:11.617Z,8.94
2019-03-20T04:36:47.733Z,8.94
2019-03-20T04:37:15.757Z,8.92
2019-03-20T04:37:47.005Z,8.92
2019-03-20T04:38:18.223Z,8.91
2019-03-20T04:38:49.449Z,8.91
2019-03-20T04:39:20.649Z,8.91
2019-03-20T04:39:51.872Z,8.90
2019-03-20T04:40:23.158Z,8.91
2019-03-20T04:40:54.363Z,8.90
2019-03-20T04:41:25.578Z,8.91
2019-03-20T04:41:56.784Z,8.91
2019-03-20T04:42:28.016Z,8.90
2019-03-20T04:42:59.251Z,8.91
2019-03-20T04:43:30.500Z,8.91
2019-03-20T04:44:01.706Z,8.91
2019-03-20T04:44:33.236Z,8.88
2019-03-20T04:45:04.431Z,8.89
2019-03-20T04:45:35.641Z,8.91
2019-03-20T04:46:06.847Z,8.95
2019-03-20T04:46:38.045Z,8.99
2019-03-20T04:47:09.258Z,9.08
2019-03-20T04:47:40.469Z,9.13
2019-03-20T04:48:11.683Z,9.13
2019-03-20T04:48:42.930Z,9.12
2019-03-20T04:49:14.141Z,9.12
2019-03-20T04:49:45.393Z,9.14
2019-03-20T04:50:16.600Z,9.14
2019-03-20T04:50:47.822Z,9.11
2019-03-20T04:51:19.020Z,9.14
2019-03-20T04:51:50.225Z,9.16
2019-03-20T04:52:21.437Z,9.19
2019-03-20T04:52:52.654Z,9.22
2019-03-20T04:53:23.842Z,9.30
2019-03-20T04:53:55.051Z,9.35
2019-03-20T04:54:26.264Z,9.38
2019-03-20T04:54:57.505Z,9.38
2019-03-20T04:55:28.750Z,9.40
2019-03-20T04:55:59.953Z,9.42
2019-03-20T04:56:31.168Z,9.46
2019-03-20T04:57:02.372Z,9.46
2019-03-20T04:57:33.580Z,9.47
2019-03-20T04:58:04.798Z,9.51
2019-03-20T04:58:36.004Z,9.55
2019-03-20T04:59:07.220Z,9.57
2019-03-20T04:59:38.448Z,9.57
2019-03-20T05:00:09.696Z,9.60
2019-03-20T05:00:40.960Z,9.60
2019-03-20T05:01:12.169Z,9.62
2019-03-20T05:01:43.375Z,9.61
2019-03-20T05:02:14.591Z,9.61
2019-03-20T05:02:45.790Z,9.63
2019-03-20T05:03:16.991Z,9.67
2019-03-20T05:03:48.206Z,9.71
2019-03-20T05:04:19.421Z,9.74
2019-03-20T05:04:50.628Z,9.77
2019-03-20T05:05:21.847Z,9.79
2019-03-20T05:05:53.085Z,9.76
2019-03-20T05:06:24.296Z,9.72
2019-03-20T05:06:59.043Z,9.69
2019-03-20T05:07:28.448Z,9.62
2019-03-20T05:07:59.661Z,9.56
2019-03-20T05:08:30.880Z,9.55
2019-03-20T05:09:02.073Z,9.53
2019-03-20T05:09:33.285Z,9.51
2019-03-20T05:10:04.507Z,9.46
2019-03-20T05:10:35.773Z,9.44
2019-03-20T05:11:06.987Z,9.46
2019-03-20T05:11:38.198Z,9.50
2019-03-20T05:12:09.413Z,9.54
2019-03-20T05:12:40.636Z,9.60
2019-03-20T05:13:11.855Z,9.68
2019-03-20T05:13:43.068Z,9.78
2019-03-20T05:14:14.269Z,9.87
2019-03-20T05:14:45.483Z,9.95
2019-03-20T05:15:16.695Z,10.02
2019-03-20T05:15:47.945Z,10.08
2019-03-20T05:16:19.158Z,10.12
2019-03-20T05:16:50.391Z,10.21
2019-03-20T05:17:21.594Z,10.28
2019-03-20T05:17:52.802Z,10.31
2019-03-20T05:18:24.027Z,10.37
2019-03-20T05:18:55.233Z,10.40
2019-03-20T05:19:26.453Z,10.48
2019-03-20T05:19:57.677Z,10.48
2019-03-20T05:20:28.898Z,10.47
2019-03-20T05:21:00.121Z,10.47
2019-03-20T05:21:31.334Z,10.49
2019-03-20T05:22:02.549Z,10.54
2019-03-20T05:22:33.746Z,10.60
2019-03-20T05:23:04.963Z,10.67
2019-03-20T05:23:36.199Z,10.71
2019-03-20T05:24:07.397Z,10.78
2019-03-20T05:24:38.613Z,10.81
2019-03-20T05:25:09.879Z,10.88
2019-03-20T05:25:41.107Z,10.91
2019-03-20T05:26:12.766Z,10.89
2019-03-20T05:26:43.999Z,10.92
2019-03-20T05:27:15.226Z,10.96
2019-03-20T05:27:46.452Z,11.01
2019-03-20T05:28:17.695Z,10.98
2019-03-20T05:28:48.905Z,10.98
2019-03-20T05:29:20.117Z,10.96
2019-03-20T05:29:51.324Z,10.93
2019-03-20T05:30:22.580Z,10.89
2019-03-20T05:30:53.803Z,10.88
2019-03-20T05:31:25.004Z,10.82
2019-03-20T05:31:56.215Z,10.79
2019-03-20T05:32:27.430Z,10.76
2019-03-20T05:32:58.638Z,10.73
2019-03-20T05:33:29.897Z,10.70
2019-03-20T05:34:01.116Z,10.67
2019-03-20T05:34:32.326Z,10.66
2019-03-20T05:35:03.576Z,10.65
2019-03-20T05:35:34.808Z,10.66
2019-03-20T05:36:06.018Z,10.62
2019-03-20T05:36:37.229Z,10.58
2019-03-20T05:37:10.745Z,10.52
2019-03-20T05:37:41.374Z,10.46
2019-03-20T05:38:12.580Z,10.42
2019-03-20T05:38:43.838Z,10.35
2019-03-20T05:39:15.938Z,10.26
2019-03-20T05:39:47.345Z,10.20
2019-03-20T05:40:18.556Z,10.17
2019-03-20T05:40:49.759Z,10.15
2019-03-20T05:41:20.975Z,10.15
2019-03-20T05:41:52.186Z,10.14
2019-03-20T05:42:23.396Z,10.11
2019-03-20T05:42:54.630Z,10.10
2019-03-20T05:43:25.841Z,10.12
2019-03-20T05:43:57.039Z,10.17
2019-03-20T05:44:28.255Z,10.20
2019-03-20T05:44:59.491Z,10.24
2019-03-20T05:45:30.768Z,10.21
2019-03-20T05:46:01.988Z,10.22
2019-03-20T05:46:33.197Z,10.24
2019-03-20T05:47:04.395Z,10.24
2019-03-20T05:47:35.591Z,10.25
2019-03-20T05:48:06.847Z,10.26
2019-03-20T05:48:38.054Z,10.24
2019-03-20T05:49:09.266Z,10.22
2019-03-20T05:49:40.466Z,10.21
2019-03-20T05:50:11.699Z,10.22
2019-03-20T05:50:42.981Z,10.22
2019-03-20T05:51:14.198Z,10.21
2019-03-20T05:51:45.401Z,10.22
2019-03-20T05:52:16.661Z,10.19
2019-03-20T05:52:47.878Z,10.16
2019-03-20T05:53:19.095Z,10.19
2019-03-20T05:53:50.304Z,10.22
2019-03-20T05:54:21.508Z,10.22
2019-03-20T05:54:52.730Z,10.23
2019-03-20T05:55:23.944Z,10.28
2019-03-20T05:55:55.199Z,10.30
2019-03-20T05:56:26.415Z,10.33
2019-03-20T05:56:57.624Z,10.36
2019-03-20T05:57:28.850Z,10.42
2019-03-20T05:58:00.069Z,10.49
2019-03-20T05:58:31.248Z,10.56
2019-03-20T05:59:02.449Z,10.66
2019-03-20T05:59:33.664Z,10.72
2019-03-20T06:00:05.218Z,10.84
2019-03-20T06:00:36.408Z,10.96
2019-03-20T06:01:07.678Z,11.13
2019-03-20T06:01:38.941Z,11.27
2019-03-20T06:02:10.147Z,11.37
2019-03-20T06:02:41.365Z,11.53
2019-03-20T06:03:12.582Z,11.63
2019-03-20T06:03:43.785Z,11.72
2019-03-20T06:04:14.994Z,11.84
2019-03-20T06:04:46.204Z,11.93
2019-03-20T06:05:17.423Z,11.96
2019-03-20T06:05:48.663Z,12.05
2019-03-20T06:06:19.886Z,12.13
2019-03-20T06:06:51.109Z,12.21
2019-03-20T06:07:22.371Z,12.27
2019-03-20T06:07:53.583Z,12.31
2019-03-20T06:08:24.827Z,12.35
2019-03-20T06:08:56.029Z,12.39
2019-03-20T06:09:27.234Z,12.45
2019-03-20T06:09:58.450Z,12.52
2019-03-20T06:10:29.654Z,12.59
2019-03-20T06:11:00.881Z,12.63
2019-03-20T06:11:32.087Z,12.64
2019-03-20T06:12:03.315Z,12.69
2019-03-20T06:12:34.568Z,12.75
2019-03-20T06:13:05.792Z,12.81
2019-03-20T06:13:37.963Z,12.82
2019-03-20T06:14:09.167Z,12.83
2019-03-20T06:14:40.382Z,12.87
2019-03-20T06:15:11.652Z,12.92
2019-03-20T06:15:42.852Z,13.03
2019-03-20T06:16:15.153Z,13.14
2019-03-20T06:16:46.353Z,13.23
2019-03-20T06:17:17.567Z,13.31
2019-03-20T06:17:48.831Z,13.43
2019-03-20T06:18:20.085Z,13.55
2019-03-20T06:18:51.297Z,13.65
2019-03-20T06:19:22.505Z,13.76
2019-03-20T06:19:53.730Z,13.77
2019-03-20T06:20:24.963Z,13.79
2019-03-20T06:20:56.183Z,13.80
2019-03-20T06:21:27.408Z,13.80
2019-03-20T06:21:58.619Z,13.84
2019-03-20T06:22:29.843Z,13.95
2019-03-20T06:23:01.064Z,14.12
2019-03-20T06:23:32.310Z,14.27
2019-03-20T06:24:03.560Z,14.35
2019-03-20T06:24:34.743Z,14.36
2019-03-20T06:25:05.959Z,14.21
2019-03-20T06:25:37.212Z,14.16
2019-03-20T06:26:08.430Z,14.17
2019-03-20T06:26:39.639Z,14.11
2019-03-20T06:27:10.853Z,14.11
2019-03-20T06:27:42.071Z,14.09
2019-03-20T06:28:13.287Z,14.16
2019-03-20T06:28:44.485Z,14.21
2019-03-20T06:29:15.683Z,14.24
2019-03-20T06:29:46.903Z,14.24
2019-03-20T06:30:19.095Z,14.16
2019-03-20T06:30:50.324Z,13.95
2019-03-20T06:31:21.571Z,13.93
2019-03-20T06:31:52.781Z,13.98
2019-03-20T06:32:24.014Z,14.07
2019-03-20T06:32:55.224Z,14.15
2019-03-20T06:33:26.439Z,14.24
2019-03-20T06:33:57.649Z,14.30
2019-03-20T06:34:28.852Z,14.32
2019-03-20T06:35:00.065Z,14.29
2019-03-20T06:35:31.340Z,14.20
2019-03-20T06:36:02.564Z,14.08
2019-03-20T06:36:33.772Z,14.03
2019-03-20T06:37:04.990Z,13.98
2019-03-20T06:37:36.210Z,13.79
2019-03-20T06:38:07.417Z,13.71
2019-03-20T06:38:38.633Z,13.69
2019-03-20T06:39:09.868Z,13.64
2019-03-20T06:39:41.080Z,13.68
2019-03-20T06:40:12.294Z,13.74
2019-03-20T06:40:43.554Z,13.84
2019-03-20T06:41:14.774Z,13.81
2019-03-20T06:41:45.983Z,13.77
2019-03-20T06:42:17.180Z,13.73
2019-03-20T06:42:48.454Z,13.64
2019-03-20T06:43:19.654Z,13.51
2019-03-20T06:43:50.883Z,13.46
2019-03-20T06:44:22.085Z,13.51
2019-03-20T06:44:53.288Z,13.60
2019-03-20T06:45:24.533Z,13.68
2019-03-20T06:45:55.796Z,13.80
2019-03-20T06:46:27.014Z,13.84
2019-03-20T06:46:58.219Z,13.90